createdAt,value
2022-12-20T00:01:43.337Z,2.30
2022-12-20T00:04:12.841Z,2.30
2022-12-20T00:06:41.542Z,2.30
2022-12-20T00:09:09.656Z,2.40
2022-12-20T00:11:39.604Z,2.50
2022-12-20T00:14:07.574Z,2.50
2022-12-20T00:16:36.344Z,2.60
2022-12-20T00:19:05.998Z,2.70
2022-12-20T00:21:34.867Z,2.70
2022-12-20T00:24:02.699Z,2.50
2022-12-20T00:26:32.119Z,2.50
2022-12-20T00:29:00.435Z,2.50
2022-12-20T00:31:29.218Z,2.50
2022-12-20T00:33:57.912Z,2.50
2022-12-20T00:36:27.447Z,2.50
2022-12-20T00:38:56.073Z,2.60
2022-12-20T00:41:28.872Z,2.50
2022-12-20T00:43:56.151Z,2.50
2022-12-20T00:46:24.832Z,2.50
2022-12-20T00:48:53.067Z,2.60
2022-12-20T00:51:25.713Z,2.60
2022-12-20T00:53:53.676Z,2.50
2022-12-20T00:56:21.505Z,2.50
2022-12-20T00:58:49.512Z,2.50
2022-12-20T01:01:26.724Z,2.50
2022-12-20T01:03:55.117Z,2.50
2022-12-20T01:06:25.358Z,2.50
2022-12-20T01:08:54.292Z,2.60
2022-12-20T01:11:30.700Z,2.60
2022-12-20T01:13:59.823Z,2.50
2022-12-20T01:16:37.136Z,2.50
2022-12-20T01:19:05.157Z,2.50
2022-12-20T01:21:32.355Z,2.50
2022-12-20T01:23:59.379Z,2.50
2022-12-20T01:26:29.168Z,2.50
2022-12-20T01:28:59.183Z,2.50
2022-12-20T01:31:27.695Z,2.60
2022-12-20T01:33:55.015Z,2.60
2022-12-20T01:36:27.833Z,2.70
2022-12-20T01:39:02.965Z,2.90
2022-12-20T01:41:32.267Z,3.00
2022-12-20T01:44:01.881Z,3.00
2022-12-20T01:46:32.308Z,3.00
2022-12-20T01:49:17.556Z,3.00
2022-12-20T01:51:48.284Z,2.90
2022-12-20T01:54:26.747Z,2.90
2022-12-20T01:57:05.508Z,2.80
2022-12-20T01:59:36.647Z,2.80
2022-12-20T02:02:08.677Z,2.80
2022-12-20T02:04:36.363Z,2.90
2022-12-20T02:07:04.895Z,3.00
2022-12-20T02:09:34.270Z,3.10
2022-12-20T02:12:21.041Z,3.10
2022-12-20T02:15:24.476Z,3.00
2022-12-20T02:18:17.301Z,2.90
2022-12-20T02:21:04.045Z,2.80
2022-12-20T02:24:22.742Z,2.90
2022-12-20T02:27:18.787Z,3.10
2022-12-20T02:30:09.352Z,3.20
2022-12-20T02:32:51.875Z,3.10
2022-12-20T02:35:25.602Z,3.10
2022-12-20T02:37:56.065Z,3.10
2022-12-20T02:40:42.593Z,3.00
2022-12-20T02:43:29.159Z,3.00
2022-12-20T02:45:59.403Z,2.90
2022-12-20T02:48:31.006Z,2.90
2022-12-20T02:51:00.855Z,2.90
2022-12-20T02:53:29.752Z,2.90
2022-12-20T02:56:14.698Z,2.90
2022-12-20T02:58:50.002Z,3.00
2022-12-20T03:01:25.713Z,3.00
2022-12-20T03:03:54.607Z,3.10
2022-12-20T03:06:22.182Z,3.10
2022-12-20T03:08:49.254Z,3.10
2022-12-20T03:11:16.724Z,3.00
2022-12-20T03:13:44.070Z,3.00
2022-12-20T03:16:11.449Z,3.10
2022-12-20T03:18:39.246Z,3.00
2022-12-20T03:21:06.503Z,3.00
2022-12-20T03:23:34.302Z,3.00
2022-12-20T03:26:02.107Z,2.90
2022-12-20T03:28:29.644Z,2.80
2022-12-20T03:30:56.689Z,2.80
2022-12-20T03:33:23.839Z,2.80
2022-12-20T03:35:50.932Z,3.00
2022-12-20T03:38:18.046Z,3.10
2022-12-20T03:40:45.292Z,3.10
2022-12-20T03:43:12.458Z,3.00
2022-12-20T03:45:39.533Z,3.00
2022-12-20T03:48:06.761Z,2.90
2022-12-20T03:50:34.591Z,2.80
2022-12-20T03:53:01.891Z,2.80
2022-12-20T03:55:29.025Z,2.80
2022-12-20T03:57:56.210Z,2.80
2022-12-20T04:00:23.598Z,2.80
2022-12-20T04:02:51.120Z,2.80
2022-12-20T04:05:18.724Z,2.90
2022-12-20T04:07:46.059Z,2.90
2022-12-20T04:10:13.676Z,2.90
2022-12-20T04:12:40.868Z,3.00
2022-12-20T04:15:09.166Z,3.00
2022-12-20T04:17:36.227Z,3.00
2022-12-20T04:20:19.168Z,3.10
2022-12-20T04:22:51.510Z,3.00
2022-12-20T04:25:21.386Z,3.10
2022-12-20T04:27:48.676Z,3.00
2022-12-20T04:30:15.923Z,3.00
2022-12-20T04:32:43.010Z,3.20
2022-12-20T04:35:10.517Z,3.20
2022-12-20T04:37:37.800Z,3.10
2022-12-20T04:40:05.658Z,3.10
2022-12-20T04:42:33.575Z,3.20
2022-12-20T04:45:00.663Z,3.20
2022-12-20T04:47:27.734Z,3.10
2022-12-20T04:49:54.904Z,3.10
2022-12-20T04:52:45.658Z,3.10
2022-12-20T04:55:15.184Z,3.10
2022-12-20T04:57:42.422Z,3.10
2022-12-20T05:00:10.543Z,3.10
2022-12-20T05:02:38.244Z,3.00
2022-12-20T05:05:05.706Z,3.10
2022-12-20T05:07:32.937Z,3.10
2022-12-20T05:10:00.135Z,3.10
2022-12-20T05:12:27.266Z,3.10
2022-12-20T05:14:54.300Z,3.10
2022-12-20T05:17:21.693Z,3.00
2022-12-20T05:19:48.823Z,3.00
2022-12-20T05:22:42.378Z,3.00
2022-12-20T05:25:31.705Z,3.00
2022-12-20T05:27:59.261Z,3.00
2022-12-20T05:30:26.758Z,3.00
2022-12-20T05:32:53.952Z,3.00
2022-12-20T05:35:21.090Z,3.00
2022-12-20T05:37:48.352Z,2.90
2022-12-20T05:40:16.246Z,2.90
2022-12-20T05:42:43.592Z,2.90
2022-12-20T05:45:11.308Z,2.90
2022-12-20T05:47:39.157Z,2.80
2022-12-20T05:50:07.046Z,2.80
2022-12-20T05:52:34.233Z,2.80
2022-12-20T05:55:01.339Z,2.70
2022-12-20T05:57:28.668Z,2.80
2022-12-20T05:59:55.871Z,2.70
2022-12-20T06:02:23.193Z,2.70
2022-12-20T06:04:50.488Z,2.60
2022-12-20T06:07:18.957Z,2.60
2022-12-20T06:09:46.050Z,2.60
2022-12-20T06:12:14.183Z,2.70
2022-12-20T06:14:41.286Z,2.80
2022-12-20T06:17:08.503Z,3.00
2022-12-20T06:19:35.695Z,3.10
2022-12-20T06:22:03.599Z,3.00
2022-12-20T06:24:31.208Z,3.10
2022-12-20T06:26:58.660Z,3.00
2022-12-20T06:29:25.823Z,3.00
2022-12-20T06:31:53.257Z,2.90
2022-12-20T06:34:21.098Z,3.00
2022-12-20T06:36:48.142Z,3.00
2022-12-20T06:39:15.424Z,3.00
2022-12-20T06:41:42.556Z,3.00
2022-12-20T06:44:09.649Z,3.00
2022-12-20T06:46:36.890Z,2.90
2022-12-20T06:49:04.273Z,2.90
2022-12-20T06:51:31.743Z,2.90
2022-12-20T06:53:58.788Z,2.90
2022-12-20T06:56:25.947Z,2.90
2022-12-20T06:58:53.124Z,2.90
2022-12-20T07:01:20.273Z,2.90
2022-12-20T07:03:47.706Z,2.90
2022-12-20T07:06:14.863Z,2.90
2022-12-20T07:08:42.128Z,3.00
2022-12-20T07:11:09.083Z,3.00
2022-12-20T07:13:36.177Z,3.00
2022-12-20T07:16:04.673Z,3.00
2022-12-20T07:18:32.818Z,2.90
2022-12-20T07:21:01.902Z,3.00
2022-12-20T07:23:29.323Z,3.00
2022-12-20T07:25:58.018Z,3.00
2022-12-20T07:28:26.263Z,3.00
2022-12-20T07:30:54.622Z,3.10
2022-12-20T07:33:22.013Z,3.10
2022-12-20T07:35:54.403Z,3.10
2022-12-20T07:38:21.973Z,3.10
2022-12-20T07:40:49.013Z,3.20
2022-12-20T07:43:16.152Z,3.20
2022-12-20T07:45:43.325Z,3.30
2022-12-20T07:48:15.706Z,3.40
2022-12-20T07:50:47.253Z,3.40
2022-12-20T07:53:14.697Z,3.40
2022-12-20T07:55:42.564Z,3.50
2022-12-20T07:58:12.182Z,3.50
2022-12-20T08:00:39.521Z,3.50
2022-12-20T08:03:31.932Z,3.40
2022-12-20T08:06:04.036Z,3.50
2022-12-20T08:08:33.435Z,3.50
2022-12-20T08:11:00.601Z,3.50
2022-12-20T08:13:27.835Z,3.50
2022-12-20T08:15:54.868Z,3.50
2022-12-20T08:18:21.867Z,3.50
2022-12-20T08:20:49.107Z,3.40
2022-12-20T08:23:16.428Z,3.40
2022-12-20T08:25:43.797Z,3.40
2022-12-20T08:28:11.285Z,3.40
2022-12-20T08:30:38.398Z,3.50
2022-12-20T08:33:05.878Z,3.60
2022-12-20T08:35:32.965Z,3.70
2022-12-20T08:38:00.051Z,3.70
2022-12-20T08:40:27.298Z,3.70
2022-12-20T08:42:54.409Z,3.70
2022-12-20T08:45:21.722Z,3.80
2022-12-20T08:47:49.072Z,3.80
2022-12-20T08:50:16.463Z,3.90
2022-12-20T08:52:43.579Z,4.00
2022-12-20T08:55:13.004Z,4.00
2022-12-20T08:57:40.626Z,4.10
2022-12-20T09:00:08.386Z,4.20
2022-12-20T09:02:38.380Z,4.20
2022-12-20T09:05:06.215Z,4.20
2022-12-20T09:07:33.681Z,4.20
2022-12-20T09:10:00.916Z,4.20
2022-12-20T09:12:27.968Z,4.10
2022-12-20T09:14:55.088Z,4.10
2022-12-20T09:17:22.188Z,4.10
2022-12-20T09:19:49.285Z,4.20
2022-12-20T09:22:16.370Z,4.20
2022-12-20T09:24:43.764Z,4.30
2022-12-20T09:27:10.864Z,4.30
2022-12-20T09:29:37.931Z,4.40
2022-12-20T09:32:05.168Z,4.50
2022-12-20T09:34:32.384Z,4.60
2022-12-20T09:36:59.682Z,4.70
2022-12-20T09:39:27.140Z,4.80
2022-12-20T09:41:54.473Z,5.00
2022-12-20T09:44:30.902Z,5.10
2022-12-20T09:47:20.735Z,5.20
2022-12-20T09:49:51.412Z,5.30
2022-12-20T09:52:24.427Z,5.50
2022-12-20T09:55:17.499Z,5.60
2022-12-20T09:57:53.716Z,5.70
2022-12-20T10:00:21.293Z,5.60
2022-12-20T10:03:09.892Z,5.70
2022-12-20T10:05:54.297Z,5.70
2022-12-20T10:08:40.243Z,5.80
2022-12-20T10:11:39.590Z,5.90
2022-12-20T10:14:37.602Z,5.90
2022-12-20T10:17:32.066Z,5.90
2022-12-20T10:20:11.608Z,5.80
2022-12-20T10:22:45.915Z,5.80
2022-12-20T10:25:31.263Z,5.70
2022-12-20T10:28:03.284Z,5.70
2022-12-20T10:30:32.815Z,5.70
2022-12-20T10:33:00.062Z,5.60
2022-12-20T10:35:31.460Z,5.60
2022-12-20T10:38:07.897Z,5.50
2022-12-20T10:43:36.825Z,5.40
2022-12-20T10:46:06.856Z,5.30
2022-12-20T10:48:41.223Z,5.30
2022-12-20T10:51:15.859Z,5.30
2022-12-20T10:53:59.077Z,5.30
2022-12-20T10:56:29.216Z,5.20
2022-12-20T10:59:02.899Z,5.20
2022-12-20T11:01:33.641Z,5.20
2022-12-20T11:04:07.613Z,5.20
2022-12-20T11:06:37.664Z,5.30
2022-12-20T11:09:22.811Z,5.30
2022-12-20T11:12:06.651Z,5.30
2022-12-20T11:14:39.640Z,5.30
2022-12-20T11:17:13.114Z,5.40
2022-12-20T11:20:22.250Z,5.30
2022-12-20T11:23:12.204Z,5.30
2022-12-20T11:25:55.825Z,5.30
2022-12-20T11:28:47.951Z,5.30
2022-12-20T11:31:41.603Z,5.40
2022-12-20T11:34:37.607Z,5.40
2022-12-20T11:37:10.767Z,5.50
2022-12-20T11:39:48.380Z,5.60
2022-12-20T11:42:44.160Z,5.60
2022-12-20T11:45:11.251Z,5.70
2022-12-20T11:47:53.494Z,5.70
2022-12-20T11:50:33.056Z,5.80
2022-12-20T11:53:14.585Z,5.80
2022-12-20T11:55:44.862Z,5.80
2022-12-20T11:58:19.747Z,5.80
2022-12-20T12:01:03.778Z,5.90
2022-12-20T12:03:39.998Z,5.80
2022-12-20T12:06:22.203Z,5.80
2022-12-20T12:09:06.558Z,5.70
2022-12-20T12:12:05.862Z,5.60
2022-12-20T12:14:34.690Z,5.50
2022-12-20T12:17:10.436Z,5.50
2022-12-20T12:19:42.504Z,5.50
2022-12-20T12:22:20.266Z,5.60
2022-12-20T12:24:56.349Z,5.70
2022-12-20T12:27:26.345Z,5.80
2022-12-20T12:29:54.944Z,6.10
2022-12-20T12:32:44.537Z,6.20
2022-12-20T12:35:49.297Z,6.20
2022-12-20T12:38:44.394Z,6.20
2022-12-20T12:42:07.475Z,6.10
2022-12-20T12:45:04.029Z,6.20
2022-12-20T12:48:03.179Z,6.10
2022-12-20T12:50:46.257Z,6.00
2022-12-20T12:53:17.835Z,5.90
2022-12-20T12:56:07.500Z,5.90
2022-12-20T12:58:48.428Z,5.90
2022-12-20T13:01:54.191Z,5.90
2022-12-20T13:04:26.458Z,6.00
2022-12-20T13:06:59.921Z,6.00
2022-12-20T13:09:27.198Z,6.00
2022-12-20T13:12:02.390Z,6.00
2022-12-20T13:14:30.471Z,6.00
2022-12-20T13:17:20.764Z,6.10
2022-12-20T13:19:55.494Z,6.10
2022-12-20T13:22:23.838Z,6.10
2022-12-20T13:25:04.213Z,6.10
2022-12-20T13:27:36.008Z,6.10
2022-12-20T13:30:12.405Z,6.10
2022-12-20T13:32:48.839Z,6.10
2022-12-20T13:35:24.904Z,6.10
2022-12-20T13:38:04.201Z,6.10
2022-12-20T13:40:48.119Z,6.10
2022-12-20T13:43:21.944Z,6.10
2022-12-20T13:45:53.335Z,6.10
2022-12-20T13:48:26.378Z,6.10
2022-12-20T13:50:57.710Z,6.10
2022-12-20T13:53:30.124Z,6.00
2022-12-20T13:55:57.598Z,6.00
2022-12-20T13:58:34.406Z,6.00
2022-12-20T14:01:11.770Z,6.10
2022-12-20T14:03:46.196Z,6.20
2022-12-20T14:06:15.431Z,6.30
2022-12-20T14:08:47.098Z,6.30
2022-12-20T14:11:18.984Z,6.40
2022-12-20T14:13:55.079Z,6.50
2022-12-20T14:16:24.287Z,6.60
2022-12-20T14:18:58.299Z,6.70
2022-12-20T14:21:26.685Z,6.80
2022-12-20T14:23:57.779Z,6.80
2022-12-20T14:26:28.984Z,6.80
2022-12-20T14:29:01.615Z,7.00
2022-12-20T14:31:37.549Z,6.90
2022-12-20T14:34:13.701Z,6.80
2022-12-20T14:36:48.474Z,6.80
2022-12-20T14:39:23.100Z,6.70
2022-12-20T14:41:55.992Z,6.60
2022-12-20T14:44:25.010Z,6.60
2022-12-20T14:46:58.487Z,6.50
2022-12-20T14:49:32.840Z,6.40
2022-12-20T14:52:12.179Z,6.30
2022-12-20T14:57:36.043Z,6.30
2022-12-20T15:00:14.331Z,6.20
2022-12-20T15:02:51.999Z,6.30
2022-12-20T15:05:34.920Z,6.20
2022-12-20T15:08:15.563Z,6.20
2022-12-20T15:10:53.956Z,6.10
2022-12-20T15:13:26.852Z,6.00
2022-12-20T15:15:54.148Z,6.00
2022-12-20T15:18:22.142Z,5.90
2022-12-20T15:21:00.765Z,5.90
2022-12-20T15:23:28.059Z,5.90
2022-12-20T15:25:56.389Z,5.80
2022-12-20T15:28:25.664Z,5.80
2022-12-20T15:30:53.760Z,5.70
2022-12-20T15:33:32.377Z,5.70
2022-12-20T15:36:00.335Z,5.70
2022-12-20T15:38:48.262Z,5.70
2022-12-20T15:41:27.639Z,5.70
2022-12-20T15:44:06.015Z,5.50
2022-12-20T15:46:33.815Z,5.50
2022-12-20T15:49:01.201Z,5.40
2022-12-20T15:51:34.945Z,5.20
2022-12-20T15:54:04.991Z,5.20
2022-12-20T15:56:33.123Z,5.10
2022-12-20T15:59:00.491Z,5.10
2022-12-20T16:01:40.395Z,5.10
2022-12-20T16:04:13.857Z,5.00
2022-12-20T16:06:41.853Z,5.00
2022-12-20T16:09:08.924Z,5.10
2022-12-20T16:11:36.794Z,5.00
2022-12-20T16:14:04.189Z,5.00
2022-12-20T16:16:34.855Z,4.90
2022-12-20T16:19:04.078Z,4.90
2022-12-20T16:21:34.432Z,4.90
2022-12-20T16:24:01.916Z,5.10
2022-12-20T16:26:29.277Z,5.20
2022-12-20T16:28:57.398Z,5.20
2022-12-20T16:31:38.727Z,5.20
2022-12-20T16:34:12.952Z,5.20
2022-12-20T16:36:40.311Z,5.20
2022-12-20T16:39:10.121Z,5.20
2022-12-20T16:41:39.287Z,5.20
2022-12-20T16:44:06.895Z,5.20
2022-12-20T16:46:34.959Z,5.20
2022-12-20T16:49:02.187Z,5.20
2022-12-20T16:51:40.700Z,5.20
2022-12-20T16:54:20.920Z,5.20
2022-12-20T16:56:57.541Z,5.20
2022-12-20T16:59:25.378Z,5.20
2022-12-20T17:01:55.347Z,5.10
2022-12-20T17:04:24.046Z,5.10
2022-12-20T17:06:51.180Z,5.20
2022-12-20T17:09:19.732Z,5.20
2022-12-20T17:11:47.940Z,5.20
2022-12-20T17:14:15.142Z,5.20
2022-12-20T17:16:42.396Z,5.30
2022-12-20T17:19:10.932Z,5.20
2022-12-20T17:24:27.041Z,5.00
2022-12-20T17:26:55.431Z,5.00
2022-12-20T17:29:22.702Z,4.90
2022-12-20T17:31:49.832Z,5.20
2022-12-20T17:34:22.273Z,5.20
2022-12-20T17:36:51.741Z,5.10
2022-12-20T17:39:18.933Z,5.10
2022-12-20T17:41:47.224Z,5.20
2022-12-20T17:44:19.230Z,5.20
2022-12-20T17:46:47.077Z,5.10
2022-12-20T17:49:14.855Z,5.20
2022-12-20T17:51:42.244Z,5.20
2022-12-20T17:54:18.417Z,5.10
2022-12-20T17:56:46.231Z,5.00
2022-12-20T17:59:14.518Z,5.00
2022-12-20T18:01:43.505Z,4.90
2022-12-20T18:04:13.658Z,4.80
2022-12-20T18:06:42.732Z,4.80
2022-12-20T18:09:18.756Z,4.90
2022-12-20T18:11:46.217Z,5.00
2022-12-20T18:14:14.194Z,5.00
2022-12-20T18:16:41.736Z,5.00
2022-12-20T18:19:15.995Z,5.10
2022-12-20T18:21:43.085Z,5.20
2022-12-20T18:24:12.215Z,5.20
2022-12-20T18:26:39.588Z,5.20
2022-12-20T18:29:06.693Z,5.30
2022-12-20T18:31:35.406Z,5.20
2022-12-20T18:34:03.360Z,5.20
2022-12-20T18:36:34.802Z,5.20
2022-12-20T18:39:04.665Z,5.20
2022-12-20T18:41:32.414Z,5.20
2022-12-20T18:44:02.114Z,5.30
2022-12-20T18:46:30.574Z,5.30
2022-12-20T18:48:59.892Z,5.40
2022-12-20T18:51:29.415Z,5.50
2022-12-20T18:53:58.488Z,5.50
2022-12-20T18:56:33.505Z,5.50
2022-12-20T18:59:08.172Z,5.60
2022-12-20T19:01:39.423Z,5.60
2022-12-20T19:04:07.620Z,5.60
2022-12-20T19:06:36.132Z,5.60
2022-12-20T19:09:08.004Z,5.60
2022-12-20T19:11:35.917Z,5.70
2022-12-20T19:14:03.723Z,5.80
2022-12-20T19:16:32.847Z,5.80
2022-12-20T19:19:01.785Z,5.70
2022-12-20T19:21:31.512Z,5.60
2022-12-20T19:24:00.894Z,5.60
2022-12-20T19:26:29.824Z,5.60
2022-12-20T19:28:58.205Z,5.60
2022-12-20T19:31:27.909Z,5.70
2022-12-20T19:33:57.747Z,5.80
2022-12-20T19:36:28.525Z,5.70
2022-12-20T19:38:58.206Z,5.60
2022-12-20T19:41:30.544Z,5.50
2022-12-20T19:43:58.286Z,5.50
2022-12-20T19:46:29.059Z,5.40
2022-12-20T19:48:59.021Z,5.40
2022-12-20T19:51:28.414Z,5.40
2022-12-20T19:53:56.850Z,5.40
2022-12-20T19:56:30.266Z,5.30
2022-12-20T19:58:57.512Z,5.30
2022-12-20T20:01:27.150Z,5.20
2022-12-20T20:03:56.129Z,5.20
2022-12-20T20:06:24.116Z,5.20
2022-12-20T20:08:51.962Z,5.20
2022-12-20T20:11:21.125Z,5.20
2022-12-20T20:13:48.371Z,5.20
2022-12-20T20:16:21.624Z,5.20
2022-12-20T20:18:50.192Z,5.20
2022-12-20T20:21:21.308Z,5.20
2022-12-20T20:23:52.795Z,5.10
2022-12-20T20:26:23.331Z,5.10
2022-12-20T20:28:50.987Z,5.10
2022-12-20T20:31:19.651Z,5.20
2022-12-20T20:33:46.910Z,5.20
2022-12-20T20:36:18.103Z,5.20
2022-12-20T20:38:45.888Z,5.20
2022-12-20T20:41:14.309Z,5.30
2022-12-20T20:43:42.187Z,5.40
2022-12-20T20:46:12.036Z,5.40
2022-12-20T20:48:40.071Z,5.60
2022-12-20T20:51:07.683Z,5.60
2022-12-20T20:53:35.156Z,5.70
2022-12-20T20:56:03.585Z,5.60
2022-12-20T20:58:31.396Z,5.60
2022-12-20T21:01:01.092Z,5.60
2022-12-20T21:03:29.937Z,5.60
2022-12-20T21:08:45.495Z,5.50
2022-12-20T21:11:12.946Z,5.40
2022-12-20T21:13:40.396Z,5.40
2022-12-20T21:16:20.611Z,5.40
2022-12-20T21:18:52.817Z,5.50
2022-12-20T21:21:20.592Z,5.50
2022-12-20T21:23:48.361Z,5.50
2022-12-20T21:26:17.979Z,5.50
2022-12-20T21:28:45.897Z,5.50
2022-12-20T21:31:16.131Z,5.60
2022-12-20T21:33:44.610Z,5.50
2022-12-20T21:36:14.372Z,5.50
2022-12-20T21:38:41.790Z,5.50
2022-12-20T21:41:12.419Z,5.60
2022-12-20T21:43:39.813Z,5.50
2022-12-20T21:46:11.362Z,5.40
2022-12-20T21:48:40.353Z,5.30
2022-12-20T21:51:13.969Z,5.30
2022-12-20T21:53:49.593Z,5.30
2022-12-20T21:56:18.191Z,5.40
2022-12-20T21:58:45.805Z,5.50
2022-12-20T22:01:15.587Z,5.50
2022-12-20T22:03:44.445Z,5.50
2022-12-20T22:06:12.617Z,5.60
2022-12-20T22:08:39.863Z,5.50
2022-12-20T22:11:11.983Z,5.60
2022-12-20T22:13:41.783Z,5.50
2022-12-20T22:16:25.611Z,5.60
2022-12-20T22:18:54.571Z,5.60
2022-12-20T22:21:24.477Z,5.70
2022-12-20T22:23:51.847Z,5.70
2022-12-20T22:26:22.858Z,5.70
2022-12-20T22:28:52.694Z,5.60
2022-12-20T22:31:20.863Z,5.50
2022-12-20T22:33:49.463Z,5.60
2022-12-20T22:36:17.529Z,5.60
2022-12-20T22:38:45.000Z,5.70
2022-12-20T22:41:23.839Z,5.70
2022-12-20T22:43:51.346Z,5.80
2022-12-20T22:46:19.571Z,5.70
2022-12-20T22:48:47.684Z,5.60
2022-12-20T22:51:18.363Z,5.70
2022-12-20T22:53:47.553Z,5.80
2022-12-20T22:56:16.387Z,5.90
2022-12-20T22:58:44.013Z,5.80
2022-12-20T23:01:14.032Z,5.80
2022-12-20T23:03:41.869Z,5.90
2022-12-20T23:06:12.205Z,5.90
2022-12-20T23:08:39.712Z,5.70
2022-12-20T23:11:34.966Z,5.70
2022-12-20T23:14:20.821Z,5.60
2022-12-20T23:16:48.324Z,5.60
2022-12-20T23:19:15.587Z,5.60
2022-12-20T23:22:01.252Z,5.60
2022-12-20T23:24:28.673Z,5.60
2022-12-20T23:26:56.008Z,5.60
2022-12-20T23:29:23.895Z,5.50
2022-12-20T23:31:51.556Z,5.50
2022-12-20T23:34:18.948Z,5.50
2022-12-20T23:36:46.119Z,5.40
2022-12-20T23:39:13.315Z,5.40
2022-12-20T23:41:40.588Z,5.40
2022-12-20T23:44:07.824Z,5.40
2022-12-20T23:46:34.940Z,5.40
2022-12-20T23:49:02.000Z,5.30
2022-12-20T23:51:29.381Z,5.40
2022-12-20T23:53:56.570Z,5.40
2022-12-20T23:56:24.061Z,5.50
2022-12-20T23:58:55.372Z,5.40
